Etusivu
METAR-TAF:

METAR-TAF

Lentoasemat :

Longyearbyen, Norja

Huippuvuorten lentoasema

Leveyspiiri: 78-15N, Pituuspiiri: 015-28E, korkeus merenpinnasta: 2 m

Tämänhetkinen sää

Tämä raportti tehtiin 51 minuuttia sitten, kello 22.50 UTC
Tuuli 19 kn idästä/kaakosta
Lämpötila -2°C
Kosteus 74%
Ilmanpaine 1010 hPa
Näkyvyys 10 km tai enemmän
Hajanaisia pilviä 2800 ft:n korkeudessa
heikkoa lumisadetta

METAR: ENSB 172250Z 11019KT 9999 -SN SCT028 M02/M06 Q1010 RMK WIND 1400FT 10027KT

Aika: 00:41 (23:41 UTC)

Sääennuste

Ennuste voimassa 17. päivästä klo 18 UTC - 18. päivään klo 18 UTC
Tuuli 18 kn idästä
Näkyvyys 10 km tai enemmän
Muutamia pilviä 2000 ft:n korkeudessa
Hajanaisia pilviä 3000 ft:n korkeudessa
matalaa lumituiskua
Ajoittain
17. päivästä klo 18 UTC - 18. päivään klo 15 UTC
Tuuli 30 kn idästä puuskistuen 40 kn:hen

TAF: ENSB 1718/1818 10018KT 9999 DRSN FEW020 SCT030 TEMPO 1718/1815 10030G40KT

Säähavainnot ja -ennusteet yli 4000 lentoasemalta (METAR- ja TAF-raportit).

Käytössä olevat sääasemat on merkitty karttaan keltaisilla ja punaisilla pisteillä.

Aseta hiiri pisteen päälle nähdäksesi sääaseman nimen.

Klikkaa sitten nähdäksesi säähavainnot ja -ennusteet.

Kartan vaihtaminen: klikkaa mustalla rastilla varustettuja vihreitä pisteitä, niin voit zoomata sisään; viivalla varustettua vihreää pistettä, niin voit zoomata ulos tai vihreitä nuolia, niin pääset viereisille kartoille.


METAR-TAF: